Hawkinge, United Kingdom
Current Conditions -  °F | °C
As of 2:20 PM on Monday 22 Dec 2014 (Local Time) from EGMD Reporting Station
Scattered Clouds Scattered Clouds  
Wind Chill: 55°   Ceiling: Unl
Heat Index: 55°   Visibility: 6mi
Dew Point: 50°   Wind: 28mph
Humidity: 82%   Direction: 250°WSW
Pressure: 30.12"   Gusts: NA
Location:  51.11°N, 1.16°E
Report Text: EGMD 221420Z 25024KT 9999 SCT019 13/10 Q1020
Loading
Personal Weather Stations






























Interactive Weather Map New forecast layout! Learn more

10-Day Weather Forecast

Advertisements
Track Severe Weather on mobile